createdAt,value
2023-01-05T00:00:27.736Z,46.59
2023-01-05T00:01:27.694Z,51.44
2023-01-05T00:02:27.744Z,43.31
2023-01-05T00:03:27.684Z,49.64
2023-01-05T00:04:27.714Z,50.95
2023-01-05T00:05:27.660Z,47.83
2023-01-05T00:06:27.663Z,49.23
2023-01-05T00:07:27.673Z,47.95
2023-01-05T00:08:32.967Z,46.63
2023-01-05T00:09:29.630Z,50.55
2023-01-05T00:10:27.627Z,52.77
2023-01-05T00:11:27.621Z,50.18
2023-01-05T00:12:27.677Z,49.30
2023-01-05T00:13:27.601Z,54.87
2023-01-05T00:14:27.591Z,48.98
2023-01-05T00:15:27.596Z,53.75
2023-01-05T00:16:27.603Z,42.61
2023-01-05T00:17:27.601Z,42.56
2023-01-05T00:18:27.554Z,54.20
2023-01-05T00:19:28.557Z,47.67
2023-01-05T00:20:27.552Z,57.46
2023-01-05T00:21:27.548Z,48.39
2023-01-05T00:22:27.584Z,43.78
2023-01-05T00:23:27.528Z,42.53
2023-01-05T00:24:27.517Z,41.36
2023-01-05T00:25:27.513Z,44.43
2023-01-05T00:26:27.508Z,44.79
2023-01-05T00:27:27.518Z,43.36
2023-01-05T00:28:27.484Z,44.95
2023-01-05T00:29:27.479Z,51.43
2023-01-05T00:30:27.470Z,43.29
2023-01-05T00:31:27.476Z,44.67
2023-01-05T00:32:27.480Z,44.46
2023-01-05T00:33:27.447Z,43.84
2023-01-05T00:34:27.438Z,44.07
2023-01-05T00:35:27.424Z,51.82
2023-01-05T00:36:27.415Z,50.02
2023-01-05T00:37:27.432Z,51.92
2023-01-05T00:38:27.402Z,48.10
2023-01-05T00:39:27.396Z,48.16
2023-01-05T00:40:27.386Z,45.61
2023-01-05T00:41:27.380Z,45.10
2023-01-05T00:42:27.383Z,50.14
2023-01-05T00:43:28.365Z,44.17
2023-01-05T00:44:27.352Z,48.65
2023-01-05T00:45:27.387Z,47.25
2023-01-05T00:46:27.407Z,41.96
2023-01-05T00:47:27.359Z,48.53
2023-01-05T00:48:27.320Z,51.41
2023-01-05T00:49:27.314Z,43.69
2023-01-05T00:50:27.313Z,41.79
2023-01-05T00:51:27.325Z,46.39
2023-01-05T00:52:27.321Z,47.43
2023-01-05T00:53:27.296Z,48.10
2023-01-05T00:54:27.270Z,44.03
2023-01-05T00:55:27.274Z,50.91
2023-01-05T00:56:27.257Z,52.31
2023-01-05T00:57:27.278Z,49.49
2023-01-05T00:58:27.245Z,53.24
2023-01-05T00:59:27.247Z,48.36
2023-01-05T01:00:27.236Z,43.20
2023-01-05T01:01:27.402Z,48.77
2023-01-05T01:02:27.386Z,49.26
2023-01-05T01:03:27.257Z,45.95
2023-01-05T01:04:27.198Z,42.34
2023-01-05T01:05:27.193Z,50.81
2023-01-05T01:06:27.181Z,49.10
2023-01-05T01:07:27.194Z,48.75
2023-01-05T01:08:27.171Z,51.88
2023-01-05T01:09:27.162Z,45.36
2023-01-05T01:10:27.158Z,44.97
2023-01-05T01:11:27.150Z,50.25
2023-01-05T01:12:27.166Z,43.22
2023-01-05T01:13:27.150Z,56.26
2023-01-05T01:14:27.130Z,52.36
2023-01-05T01:15:27.114Z,45.92
2023-01-05T01:16:27.161Z,45.66
2023-01-05T01:17:27.135Z,49.15
2023-01-05T01:18:27.089Z,50.73
2023-01-05T01:19:27.115Z,46.87
2023-01-05T01:20:27.075Z,53.95
2023-01-05T01:21:27.067Z,48.53
2023-01-05T01:22:27.118Z,45.90
2023-01-05T01:23:27.071Z,41.73
2023-01-05T01:24:27.046Z,40.71
2023-01-05T01:25:27.047Z,43.78
2023-01-05T01:26:27.034Z,50.33
2023-01-05T01:27:27.024Z,45.06
2023-01-05T01:28:27.037Z,40.24
2023-01-05T01:29:27.002Z,45.40
2023-01-05T01:30:27.066Z,50.64
2023-01-05T01:31:27.002Z,46.17
2023-01-05T01:32:26.988Z,50.27
2023-01-05T01:33:26.997Z,51.95
2023-01-05T01:34:26.965Z,56.16
2023-01-05T01:35:26.956Z,47.46
2023-01-05T01:36:26.945Z,50.24
2023-01-05T01:37:26.948Z,44.00
2023-01-05T01:38:26.966Z,45.63
2023-01-05T01:39:26.934Z,51.91
2023-01-05T01:40:26.919Z,45.72
2023-01-05T01:41:26.920Z,46.10
2023-01-05T01:42:26.905Z,43.85
2023-01-05T01:43:26.924Z,42.04
2023-01-05T01:44:26.891Z,48.81
2023-01-05T01:45:26.882Z,47.53
2023-01-05T01:46:26.925Z,50.89
2023-01-05T01:47:26.869Z,48.09
2023-01-05T01:48:26.882Z,45.77
2023-01-05T01:49:26.845Z,49.03
2023-01-05T01:50:26.840Z,45.45
2023-01-05T01:51:26.861Z,48.13
2023-01-05T01:52:26.826Z,55.99
2023-01-05T01:53:26.876Z,51.81
2023-01-05T01:54:26.811Z,54.34
2023-01-05T01:55:26.792Z,50.81
2023-01-05T01:56:26.798Z,50.89
2023-01-05T01:57:26.796Z,43.61
2023-01-05T01:58:26.803Z,44.48
2023-01-05T01:59:26.782Z,43.74
2023-01-05T02:00:26.781Z,48.73
2023-01-05T02:01:26.807Z,50.56
2023-01-05T02:02:26.899Z,50.22
2023-01-05T02:03:26.767Z,46.73
2023-01-05T02:04:26.752Z,50.24
2023-01-05T02:05:26.731Z,49.93
2023-01-05T02:06:26.719Z,47.20
2023-01-05T02:07:26.714Z,46.49
2023-01-05T02:08:26.727Z,48.43
2023-01-05T02:09:26.705Z,43.88
2023-01-05T02:10:26.684Z,54.44
2023-01-05T02:11:26.701Z,45.53
2023-01-05T02:12:26.670Z,43.54
2023-01-05T02:13:31.413Z,47.02
2023-01-05T02:14:28.650Z,43.96
2023-01-05T02:15:26.652Z,44.93
2023-01-05T02:16:26.640Z,46.35
2023-01-05T02:17:26.628Z,50.55
2023-01-05T02:18:26.650Z,47.99
2023-01-05T02:19:26.630Z,47.31
2023-01-05T02:20:26.618Z,54.96
2023-01-05T02:21:26.596Z,48.27
2023-01-05T02:22:26.585Z,45.41
2023-01-05T02:23:26.606Z,53.12
2023-01-05T02:24:26.576Z,49.68
2023-01-05T02:25:26.563Z,52.04
2023-01-05T02:26:26.554Z,47.29
2023-01-05T02:27:26.590Z,48.88
2023-01-05T02:28:26.537Z,46.63
2023-01-05T02:29:26.552Z,48.21
2023-01-05T02:30:26.581Z,45.93
2023-01-05T02:31:26.516Z,52.88
2023-01-05T02:32:26.508Z,45.92
2023-01-05T02:33:26.501Z,54.18
2023-01-05T02:34:26.530Z,48.24
2023-01-05T02:35:26.485Z,44.47
2023-01-05T02:36:28.701Z,46.68
2023-01-05T02:37:27.469Z,50.60
2023-01-05T02:38:26.469Z,50.46
2023-01-05T02:39:26.479Z,50.31
2023-01-05T02:40:26.450Z,42.12
2023-01-05T02:41:26.439Z,40.95
2023-01-05T02:42:26.443Z,40.94
2023-01-05T02:43:26.420Z,46.77
2023-01-05T02:44:26.442Z,44.40
2023-01-05T02:45:26.411Z,49.34
2023-01-05T02:46:26.423Z,51.42
2023-01-05T02:47:26.397Z,43.93
2023-01-05T02:48:26.388Z,50.64
2023-01-05T02:49:26.398Z,46.32
2023-01-05T02:50:26.372Z,44.06
2023-01-05T02:51:26.372Z,47.48
2023-01-05T02:52:26.356Z,44.62
2023-01-05T02:53:26.352Z,44.89
2023-01-05T02:54:26.367Z,45.17
2023-01-05T02:55:26.334Z,56.67
2023-01-05T02:56:26.328Z,51.16
2023-01-05T02:57:26.319Z,44.61
2023-01-05T02:58:26.317Z,45.55
2023-01-05T02:59:26.328Z,51.15
2023-01-05T03:00:26.301Z,44.93
2023-01-05T03:01:26.409Z,43.24
2023-01-05T03:02:26.453Z,40.29
2023-01-05T03:03:26.346Z,48.02
2023-01-05T03:04:26.288Z,51.20
2023-01-05T03:05:26.248Z,46.13
2023-01-05T03:06:26.247Z,49.71
2023-01-05T03:07:26.240Z,46.14
2023-01-05T03:08:32.302Z,44.12
2023-01-05T03:09:28.237Z,41.91
2023-01-05T03:10:27.218Z,43.66
2023-01-05T03:11:26.206Z,40.65
2023-01-05T03:12:26.197Z,42.19
2023-01-05T03:13:26.195Z,54.76
2023-01-05T03:14:26.206Z,46.94
2023-01-05T03:15:26.204Z,45.84
2023-01-05T03:16:26.242Z,45.59
2023-01-05T03:17:26.165Z,56.10
2023-01-05T03:18:26.158Z,51.62
2023-01-05T03:19:26.171Z,43.67
2023-01-05T03:20:26.142Z,52.25
2023-01-05T03:21:26.136Z,56.25
2023-01-05T03:22:26.145Z,48.43
2023-01-05T03:23:26.115Z,46.43
2023-01-05T03:24:26.134Z,48.02
2023-01-05T03:25:26.102Z,48.31
2023-01-05T03:26:26.092Z,50.29
2023-01-05T03:27:26.092Z,43.76
2023-01-05T03:28:26.069Z,41.30
2023-01-05T03:29:26.089Z,46.10
2023-01-05T03:30:26.058Z,46.93
2023-01-05T03:31:26.088Z,55.34
2023-01-05T03:32:30.252Z,49.86
2023-01-05T03:33:27.031Z,42.46
2023-01-05T03:34:26.055Z,46.48
2023-01-05T03:35:26.029Z,49.79
2023-01-05T03:36:26.010Z,49.54
2023-01-05T03:37:26.004Z,56.80
2023-01-05T03:38:26.008Z,42.98
2023-01-05T03:39:26.016Z,52.39
2023-01-05T03:40:25.986Z,54.26
2023-01-05T03:41:25.974Z,58.26
2023-01-05T03:42:25.968Z,56.92
2023-01-05T03:43:25.964Z,52.30
2023-01-05T03:44:25.974Z,46.93
2023-01-05T03:45:25.944Z,45.99
2023-01-05T03:46:25.932Z,52.27
2023-01-05T03:47:25.931Z,51.19
2023-01-05T03:48:25.923Z,48.17
2023-01-05T03:49:25.938Z,45.58
2023-01-05T03:50:25.918Z,48.34
2023-01-05T03:51:25.905Z,57.01
2023-01-05T03:52:25.884Z,47.32
2023-01-05T03:53:25.881Z,44.63
2023-01-05T03:54:25.898Z,47.87
2023-01-05T03:55:25.865Z,44.41
2023-01-05T03:56:25.859Z,50.92
2023-01-05T03:57:25.842Z,57.97
2023-01-05T03:58:25.841Z,52.00
2023-01-05T03:59:25.857Z,48.80
2023-01-05T04:00:25.845Z,55.71
2023-01-05T04:01:25.883Z,49.52
2023-01-05T04:02:25.929Z,48.08
2023-01-05T04:03:31.414Z,54.75
2023-01-05T04:04:27.833Z,53.78
2023-01-05T04:05:25.791Z,53.21
2023-01-05T04:06:25.781Z,45.97
2023-01-05T04:07:25.772Z,54.69
2023-01-05T04:08:25.766Z,45.19
2023-01-05T04:09:25.800Z,58.18
2023-01-05T04:10:25.746Z,59.74
2023-01-05T04:11:25.748Z,61.95
2023-01-05T04:12:25.739Z,55.73
2023-01-05T04:13:25.725Z,50.20
2023-01-05T04:14:25.714Z,54.78
2023-01-05T04:15:25.736Z,54.01
2023-01-05T04:16:25.766Z,54.32
2023-01-05T04:17:25.698Z,55.07
2023-01-05T04:18:25.689Z,56.58
2023-01-05T04:19:25.681Z,52.78
2023-01-05T04:20:25.695Z,55.47
2023-01-05T04:21:25.661Z,60.75
2023-01-05T04:22:27.485Z,49.06
2023-01-05T04:23:26.666Z,59.02
2023-01-05T04:24:25.647Z,55.33
2023-01-05T04:25:25.661Z,56.83
2023-01-05T04:26:25.616Z,54.68
2023-01-05T04:27:25.618Z,54.53
2023-01-05T04:28:25.605Z,55.35
2023-01-05T04:29:25.600Z,53.55
2023-01-05T04:30:25.626Z,59.44
2023-01-05T04:31:25.630Z,55.87
2023-01-05T04:32:25.574Z,58.53
2023-01-05T04:33:25.569Z,54.14
2023-01-05T04:34:25.563Z,58.33
2023-01-05T04:35:25.586Z,60.28
2023-01-05T04:36:25.546Z,55.06
2023-01-05T04:37:25.539Z,55.70
2023-01-05T04:38:25.519Z,56.18
2023-01-05T04:39:26.527Z,55.63
2023-01-05T04:40:25.536Z,61.76
2023-01-05T04:41:25.505Z,57.85
2023-01-05T04:42:25.500Z,55.39
2023-01-05T04:43:25.493Z,54.91
2023-01-05T04:44:25.487Z,57.46
2023-01-05T04:45:25.538Z,57.99
2023-01-05T04:46:25.494Z,58.66
2023-01-05T04:47:25.467Z,58.11
2023-01-05T04:48:25.476Z,56.67
2023-01-05T04:49:25.440Z,54.04
2023-01-05T04:50:25.471Z,57.03
2023-01-05T04:51:25.442Z,54.59
2023-01-05T04:52:25.431Z,55.65
2023-01-05T04:53:25.433Z,52.51
2023-01-05T04:54:25.419Z,54.68
2023-01-05T04:55:25.423Z,53.15
2023-01-05T04:56:25.387Z,57.85
2023-01-05T04:57:25.383Z,54.33
2023-01-05T04:58:25.385Z,60.74
2023-01-05T04:59:25.405Z,52.19
2023-01-05T05:00:25.385Z,55.25
2023-01-05T05:01:25.410Z,51.88
2023-01-05T05:02:25.517Z,61.11
2023-01-05T05:03:31.085Z,56.73
2023-01-05T05:04:26.332Z,52.69
2023-01-05T05:05:25.356Z,56.73
2023-01-05T05:06:25.302Z,55.71
2023-01-05T05:07:26.327Z,57.24
2023-01-05T05:08:25.296Z,52.85
2023-01-05T05:09:25.301Z,59.45
2023-01-05T05:10:25.314Z,56.52
2023-01-05T05:11:25.272Z,53.62
2023-01-05T05:12:25.266Z,57.47
2023-01-05T05:13:25.266Z,59.39
2023-01-05T05:14:25.248Z,56.43
2023-01-05T05:15:25.242Z,57.55
2023-01-05T05:16:25.273Z,56.64
2023-01-05T05:17:25.229Z,56.11
2023-01-05T05:18:25.228Z,60.50
2023-01-05T05:19:25.216Z,56.44
2023-01-05T05:20:25.204Z,51.97
2023-01-05T05:21:25.220Z,59.50
2023-01-05T05:22:25.187Z,57.79
2023-01-05T05:23:25.177Z,57.99
2023-01-05T05:24:25.165Z,54.90
2023-01-05T05:25:25.164Z,59.79
2023-01-05T05:26:25.182Z,58.64
2023-01-05T05:27:25.145Z,59.94
2023-01-05T05:28:25.144Z,57.20
2023-01-05T05:29:25.133Z,62.09
2023-01-05T05:30:25.120Z,57.82
2023-01-05T05:31:25.183Z,59.09
2023-01-05T05:32:25.110Z,54.65
2023-01-05T05:33:25.107Z,58.50
2023-01-05T05:34:25.094Z,56.87
2023-01-05T05:35:25.087Z,57.80
2023-01-05T05:36:25.094Z,59.64
2023-01-05T05:37:25.062Z,55.69
2023-01-05T05:38:25.062Z,57.43
2023-01-05T05:39:25.157Z,55.20
2023-01-05T05:40:25.039Z,57.60
2023-01-05T05:41:25.056Z,58.81
2023-01-05T05:42:25.023Z,61.72
2023-01-05T05:43:25.009Z,60.44
2023-01-05T05:44:25.008Z,57.26
2023-01-05T05:45:25.003Z,59.09
2023-01-05T05:46:25.037Z,59.01
2023-01-05T05:47:24.994Z,59.66
2023-01-05T05:48:24.972Z,58.82
2023-01-05T05:49:24.963Z,62.03
2023-01-05T05:50:24.974Z,61.02
2023-01-05T05:51:24.976Z,59.13
2023-01-05T05:52:24.937Z,61.45
2023-01-05T05:53:24.932Z,59.87
2023-01-05T05:54:24.927Z,57.20
2023-01-05T05:55:24.927Z,53.45
2023-01-05T05:56:24.928Z,57.46
2023-01-05T05:57:24.902Z,58.47
2023-01-05T05:58:24.894Z,60.51
2023-01-05T05:59:24.908Z,58.09
2023-01-05T06:00:24.881Z,61.10
2023-01-05T06:01:24.924Z,58.04
2023-01-05T06:02:24.913Z,58.19
2023-01-05T06:03:24.884Z,57.25
2023-01-05T06:04:24.848Z,56.69
2023-01-05T06:05:24.846Z,60.13
2023-01-05T06:06:24.855Z,58.27
2023-01-05T06:07:24.823Z,56.96
2023-01-05T06:08:24.813Z,57.39
2023-01-05T06:09:24.836Z,61.69
2023-01-05T06:10:24.798Z,61.08
2023-01-05T06:11:24.836Z,59.48
2023-01-05T06:12:24.785Z,56.78
2023-01-05T06:13:24.776Z,60.81
2023-01-05T06:14:24.766Z,59.70
2023-01-05T06:15:24.761Z,57.07
2023-01-05T06:16:24.802Z,59.76
2023-01-05T06:17:24.747Z,59.78
2023-01-05T06:18:24.736Z,58.72
2023-01-05T06:19:24.731Z,53.45
2023-01-05T06:20:24.733Z,59.16
2023-01-05T06:21:24.740Z,60.75
2023-01-05T06:22:24.708Z,58.53
2023-01-05T06:23:24.699Z,59.55
2023-01-05T06:24:24.696Z,56.58
2023-01-05T06:25:24.681Z,60.55
2023-01-05T06:26:24.694Z,60.04
2023-01-05T06:27:24.676Z,59.94
2023-01-05T06:28:24.661Z,59.59
2023-01-05T06:29:24.649Z,56.50
2023-01-05T06:30:24.660Z,57.62
2023-01-05T06:31:24.702Z,59.63
2023-01-05T06:32:24.632Z,57.78
2023-01-05T06:33:24.631Z,58.17
2023-01-05T06:34:24.612Z,61.20
2023-01-05T06:35:24.610Z,58.71
2023-01-05T06:36:24.632Z,56.44
2023-01-05T06:37:24.594Z,58.46
2023-01-05T06:38:24.582Z,55.72
2023-01-05T06:39:24.577Z,55.76
2023-01-05T06:40:24.571Z,54.93
2023-01-05T06:41:24.565Z,57.26
2023-01-05T06:42:24.596Z,56.93
2023-01-05T06:43:24.558Z,59.99
2023-01-05T06:44:24.537Z,60.90
2023-01-05T06:45:24.550Z,58.74
2023-01-05T06:46:24.559Z,54.55
2023-01-05T06:47:24.541Z,57.61
2023-01-05T06:48:24.506Z,57.80
2023-01-05T06:49:24.502Z,60.83
2023-01-05T06:50:24.491Z,56.14
2023-01-05T06:51:24.488Z,56.27
2023-01-05T06:52:24.504Z,55.16
2023-01-05T06:53:24.466Z,57.03
2023-01-05T06:54:24.472Z,58.63
2023-01-05T06:55:24.456Z,58.06
2023-01-05T06:56:24.447Z,58.14
2023-01-05T06:57:24.463Z,55.90
2023-01-05T06:58:24.427Z,53.26
2023-01-05T06:59:24.423Z,57.39
2023-01-05T07:00:24.417Z,55.97
2023-01-05T07:01:24.499Z,57.33
2023-01-05T07:02:24.428Z,56.37
2023-01-05T07:03:24.389Z,59.41
2023-01-05T07:04:24.404Z,57.90
2023-01-05T07:05:24.385Z,56.87
2023-01-05T07:06:24.373Z,58.31
2023-01-05T07:07:24.390Z,58.42
2023-01-05T07:08:24.357Z,58.67
2023-01-05T07:09:24.361Z,55.57
2023-01-05T07:10:24.337Z,56.50
2023-01-05T07:11:24.332Z,55.89
2023-01-05T07:12:24.550Z,55.74
2023-01-05T07:13:24.331Z,59.63
2023-01-05T07:14:24.307Z,57.32
2023-01-05T07:15:24.304Z,57.70
2023-01-05T07:16:24.333Z,57.46
2023-01-05T07:17:24.310Z,60.46
2023-01-05T07:18:24.294Z,60.70
2023-01-05T07:19:24.262Z,58.33
2023-01-05T07:20:24.263Z,57.60
2023-01-05T07:21:24.309Z,55.81
2023-01-05T07:22:24.273Z,57.77
2023-01-05T07:23:24.238Z,55.35
2023-01-05T07:24:24.233Z,56.87
2023-01-05T07:25:24.238Z,59.11
2023-01-05T07:26:24.217Z,57.60
2023-01-05T07:27:24.235Z,55.97
2023-01-05T07:28:24.699Z,59.72
2023-01-05T07:29:24.197Z,55.46
2023-01-05T07:30:24.192Z,59.02
2023-01-05T07:31:24.211Z,63.97
2023-01-05T07:32:24.200Z,54.88
2023-01-05T07:33:24.176Z,57.46
2023-01-05T07:34:24.155Z,56.68
2023-01-05T07:35:24.152Z,56.85
2023-01-05T07:36:24.147Z,59.70
2023-01-05T07:37:24.166Z,59.35
2023-01-05T07:38:24.136Z,59.82
2023-01-05T07:39:24.126Z,55.91
2023-01-05T07:40:24.111Z,59.93
2023-01-05T07:41:24.109Z,60.82
2023-01-05T07:42:24.121Z,60.47
2023-01-05T07:43:24.100Z,54.71
2023-01-05T07:44:24.081Z,55.89
2023-01-05T07:45:24.198Z,57.32
2023-01-05T07:46:24.126Z,57.00
2023-01-05T07:47:24.090Z,57.80
2023-01-05T07:48:24.054Z,59.13
2023-01-05T07:49:24.044Z,53.45
2023-01-05T07:50:24.048Z,55.26
2023-01-05T07:51:24.039Z,56.82
2023-01-05T07:52:24.043Z,54.43
2023-01-05T07:53:24.013Z,57.46
2023-01-05T07:54:24.014Z,60.49
2023-01-05T07:55:23.997Z,58.48
2023-01-05T07:56:23.982Z,58.47
2023-01-05T07:57:24.001Z,58.22
2023-01-05T07:58:23.978Z,58.01
2023-01-05T07:59:23.963Z,61.85
2023-01-05T08:00:23.969Z,58.15
2023-01-05T08:01:24.113Z,56.82
2023-01-05T08:02:24.050Z,57.56
2023-01-05T08:03:23.967Z,59.85
2023-01-05T08:04:23.996Z,61.19
2023-01-05T08:05:23.913Z,56.79
2023-01-05T08:06:23.907Z,53.77
2023-01-05T08:07:23.924Z,57.64
2023-01-05T08:08:24.677Z,58.29
2023-01-05T08:09:24.886Z,59.30
2023-01-05T08:10:23.887Z,59.39
2023-01-05T08:11:23.873Z,55.68
2023-01-05T08:12:23.891Z,56.19
2023-01-05T08:13:23.959Z,55.67
2023-01-05T08:14:23.847Z,58.01
2023-01-05T08:15:23.841Z,56.23
2023-01-05T08:16:23.893Z,56.19
2023-01-05T08:17:23.855Z,54.26
2023-01-05T08:18:23.815Z,59.37
2023-01-05T08:19:23.809Z,59.14
2023-01-05T08:20:23.793Z,54.80
2023-01-05T08:21:24.793Z,56.30
2023-01-05T08:22:23.809Z,57.32
2023-01-05T08:23:25.622Z,55.56
2023-01-05T08:24:23.766Z,56.95
2023-01-05T08:25:23.761Z,57.49
2023-01-05T08:26:23.794Z,56.50
2023-01-05T08:27:23.847Z,58.22
2023-01-05T08:28:24.649Z,57.41
2023-01-05T08:29:23.734Z,53.49
2023-01-05T08:30:23.728Z,55.51
2023-01-05T08:31:23.775Z,56.29
2023-01-05T08:32:23.728Z,57.96
2023-01-05T08:33:23.697Z,56.46
2023-01-05T08:34:23.690Z,55.36
2023-01-05T08:35:23.688Z,55.22
2023-01-05T08:36:23.669Z,58.39
2023-01-05T08:37:23.695Z,58.36
2023-01-05T08:38:23.753Z,56.01
2023-01-05T08:39:23.647Z,56.87
2023-01-05T08:40:23.668Z,56.21
2023-01-05T08:41:23.639Z,58.14
2023-01-05T08:42:23.670Z,52.87
2023-01-05T08:43:23.627Z,56.03
2023-01-05T08:44:23.610Z,57.42
2023-01-05T08:45:23.598Z,57.27
2023-01-05T08:46:24.681Z,57.11
2023-01-05T08:47:28.049Z,58.14
2023-01-05T08:48:24.579Z,56.60
2023-01-05T08:49:23.570Z,56.81
2023-01-05T08:50:23.627Z,57.44
2023-01-05T08:51:23.549Z,56.37
2023-01-05T08:52:23.561Z,58.50
2023-01-05T08:53:23.598Z,57.01
2023-01-05T08:54:23.532Z,53.71
2023-01-05T08:55:23.521Z,56.02
2023-01-05T08:56:23.523Z,57.34
2023-01-05T08:57:23.516Z,56.36
2023-01-05T08:58:23.523Z,55.57
2023-01-05T08:59:23.493Z,58.48
2023-01-05T09:00:23.563Z,54.49
2023-01-05T09:01:23.548Z,57.45
2023-01-05T09:02:25.774Z,54.79
2023-01-05T09:03:24.561Z,56.78
2023-01-05T09:04:23.451Z,56.02
2023-01-05T09:05:23.463Z,59.36
2023-01-05T09:06:23.441Z,57.67
2023-01-05T09:07:23.425Z,55.58
2023-01-05T09:08:23.440Z,56.11
2023-01-05T09:09:23.410Z,55.18
2023-01-05T09:10:23.406Z,53.70
2023-01-05T09:11:23.404Z,56.96
2023-01-05T09:12:25.772Z,55.21
2023-01-05T09:13:24.409Z,56.19
2023-01-05T09:14:23.380Z,56.91
2023-01-05T09:15:23.364Z,57.58
2023-01-05T09:17:25.388Z,57.25
2023-01-05T09:18:23.370Z,58.32
2023-01-05T09:19:24.343Z,58.44
2023-01-05T09:20:23.330Z,57.16
2023-01-05T09:21:23.317Z,54.22
2023-01-05T09:22:23.321Z,57.03
2023-01-05T09:23:23.328Z,55.26
2023-01-05T09:24:23.298Z,56.92
2023-01-05T09:25:23.291Z,59.93
2023-01-05T09:26:23.294Z,56.93
2023-01-05T09:27:23.277Z,59.20
2023-01-05T09:28:23.360Z,54.65
2023-01-05T09:29:23.263Z,50.44
2023-01-05T09:30:23.269Z,57.59
2023-01-05T09:31:23.285Z,56.38
2023-01-05T09:32:23.247Z,56.52
2023-01-05T09:33:23.257Z,56.74
2023-01-05T09:34:23.220Z,54.94
2023-01-05T09:35:23.219Z,53.37
2023-01-05T09:36:23.210Z,57.92
2023-01-05T09:37:23.209Z,56.48
2023-01-05T09:38:23.255Z,58.91
2023-01-05T09:39:23.257Z,56.58
2023-01-05T09:40:23.191Z,59.27
2023-01-05T09:41:23.168Z,59.30
2023-01-05T09:42:23.162Z,53.62
2023-01-05T09:43:23.181Z,56.65
2023-01-05T09:44:23.155Z,52.45
2023-01-05T09:45:23.142Z,59.09
2023-01-05T09:46:23.199Z,55.83
2023-01-05T09:47:23.121Z,57.02
2023-01-05T09:48:23.276Z,58.73
2023-01-05T09:49:23.113Z,58.29
2023-01-05T09:50:23.100Z,57.68
2023-01-05T09:51:23.094Z,54.49
2023-01-05T09:52:23.079Z,55.27
2023-01-05T09:53:23.105Z,55.21
2023-01-05T09:54:23.069Z,56.10
2023-01-05T09:55:23.142Z,59.45
2023-01-05T09:56:58.851Z,57.51
2023-01-05T09:57:25.043Z,56.96
2023-01-05T09:58:28.053Z,60.07
2023-01-05T09:59:25.027Z,58.46
2023-01-05T10:00:23.028Z,54.87
2023-01-05T10:01:23.035Z,54.05
2023-01-05T10:02:23.007Z,57.09
2023-01-05T10:04:01.736Z,55.31
2023-01-05T10:04:30.381Z,57.14
2023-01-05T10:05:25.099Z,58.29
2023-01-05T10:06:22.981Z,53.57
2023-01-05T10:07:22.959Z,56.97
2023-01-05T10:08:22.997Z,56.25
2023-01-05T10:09:22.946Z,57.35
2023-01-05T10:10:28.332Z,54.57
2023-01-05T10:11:25.004Z,57.68
2023-01-05T10:12:22.919Z,56.06
2023-01-05T10:13:22.990Z,60.25
2023-01-05T10:14:22.904Z,61.00
2023-01-05T10:15:22.907Z,56.20
2023-01-05T10:16:29.021Z,51.19
2023-01-05T10:17:42.372Z,56.21
2023-01-05T10:18:25.000Z,56.05
2023-01-05T10:19:22.862Z,59.42
2023-01-05T10:20:22.856Z,57.10
2023-01-05T10:21:22.857Z,58.21
2023-01-05T10:22:22.861Z,54.85
2023-01-05T10:23:22.995Z,54.64
2023-01-05T10:24:22.835Z,54.53
2023-01-05T10:25:22.819Z,57.68
2023-01-05T10:26:22.814Z,57.20
2023-01-05T10:27:25.665Z,57.40
2023-01-05T10:28:23.888Z,59.83
2023-01-05T10:29:22.807Z,56.41
2023-01-05T10:30:22.798Z,54.71
2023-01-05T10:31:22.816Z,57.80
2023-01-05T10:32:22.779Z,57.67
2023-01-05T10:33:27.792Z,58.74
2023-01-05T10:34:24.750Z,53.78
2023-01-05T10:35:59.071Z,51.96
2023-01-05T10:36:57.697Z,55.97
2023-01-05T10:37:24.730Z,54.43
2023-01-05T10:38:23.014Z,57.22
2023-01-05T10:39:22.711Z,56.43
2023-01-05T10:40:22.702Z,57.15
2023-01-05T10:41:22.703Z,52.63
2023-01-05T10:42:22.694Z,55.32
2023-01-05T10:43:22.787Z,61.37
2023-01-05T10:44:22.680Z,57.78
2023-01-05T10:45:22.680Z,58.91
2023-01-05T10:46:35.351Z,55.52
2023-01-05T10:47:24.688Z,55.11
2023-01-05T10:48:22.721Z,55.80
2023-01-05T10:49:22.990Z,52.23
2023-01-05T10:50:22.623Z,54.96
2023-01-05T10:51:22.615Z,55.78
2023-01-05T10:52:22.622Z,55.13
2023-01-05T10:53:22.604Z,55.44
2023-01-05T10:54:22.647Z,57.58
2023-01-05T10:55:22.588Z,58.40
2023-01-05T10:56:22.582Z,55.35
2023-01-05T10:57:22.573Z,57.38
2023-01-05T10:58:22.647Z,56.52
2023-01-05T10:59:22.750Z,55.97
2023-01-05T11:00:22.549Z,53.99
2023-01-05T11:01:22.654Z,54.39
2023-01-05T11:02:22.714Z,57.33
2023-01-05T11:03:39.814Z,57.33
2023-01-05T11:04:33.302Z,54.64
2023-01-05T11:05:24.543Z,58.84
2023-01-05T11:06:22.504Z,57.05
2023-01-05T11:07:22.490Z,57.01
2023-01-05T11:08:22.518Z,57.07
2023-01-05T11:09:22.890Z,58.83
2023-01-05T11:10:22.540Z,56.84
2023-01-05T11:11:22.472Z,60.42
2023-01-05T11:12:22.462Z,59.38
2023-01-05T11:13:22.468Z,54.76
2023-01-05T11:14:22.466Z,55.10
2023-01-05T11:15:22.511Z,58.91
2023-01-05T11:16:22.524Z,56.24
2023-01-05T11:17:22.430Z,59.82
2023-01-05T11:18:22.570Z,61.91
2023-01-05T11:19:22.425Z,58.92
2023-01-05T11:20:22.392Z,57.15
2023-01-05T11:21:22.414Z,56.27
2023-01-05T11:22:22.403Z,57.36
2023-01-05T11:23:22.368Z,56.97
2023-01-05T11:24:22.389Z,50.92
2023-01-05T11:25:22.345Z,54.56
2023-01-05T11:26:22.366Z,59.71
2023-01-05T11:27:22.348Z,53.89
2023-01-05T11:28:22.329Z,55.02
2023-01-05T11:29:22.363Z,57.11
2023-01-05T11:30:22.311Z,55.95
2023-01-05T11:31:22.455Z,57.59
2023-01-05T11:32:22.291Z,55.54
2023-01-05T11:33:25.280Z,59.90
2023-01-05T11:34:23.310Z,55.00
2023-01-05T11:35:22.270Z,57.08
2023-01-05T11:36:22.262Z,55.24
2023-01-05T11:37:22.251Z,56.66
2023-01-05T11:38:22.255Z,54.80
2023-01-05T11:39:22.265Z,56.56
2023-01-05T11:40:22.236Z,56.44
2023-01-05T11:41:22.223Z,56.07
2023-01-05T11:42:25.673Z,55.40
2023-01-05T11:43:23.210Z,59.58
2023-01-05T11:44:22.194Z,59.85
2023-01-05T11:45:22.231Z,58.23
2023-01-05T11:46:22.221Z,57.69
2023-01-05T11:47:22.249Z,57.43
2023-01-05T11:48:22.162Z,56.52
2023-01-05T11:49:22.156Z,55.06
2023-01-05T11:50:22.193Z,58.35
2023-01-05T11:51:27.590Z,55.76
2023-01-05T11:52:24.125Z,55.60
2023-01-05T11:53:22.126Z,54.81
2023-01-05T11:54:22.117Z,55.34
2023-01-05T11:55:22.141Z,56.58
2023-01-05T11:56:22.096Z,56.93
2023-01-05T11:57:22.091Z,56.39
2023-01-05T11:58:22.088Z,51.72
2023-01-05T11:59:22.077Z,54.54
2023-01-05T12:00:22.123Z,54.99
2023-01-05T12:01:22.107Z,53.98
2023-01-05T12:02:22.076Z,54.54
2023-01-05T12:03:22.041Z,52.72
2023-01-05T12:04:22.111Z,57.61
2023-01-05T12:05:22.050Z,56.50
2023-01-05T12:06:22.016Z,58.73
2023-01-05T12:07:22.006Z,56.45
2023-01-05T12:08:22.003Z,55.88
2023-01-05T12:09:22.047Z,58.10
2023-01-05T12:10:22.013Z,56.41
2023-01-05T12:11:22.013Z,55.06
2023-01-05T12:12:21.969Z,55.97
2023-01-05T12:13:21.964Z,56.23
2023-01-05T12:14:21.962Z,54.27
2023-01-05T12:15:21.976Z,57.11
2023-01-05T12:16:21.965Z,61.01
2023-01-05T12:17:21.933Z,55.22
2023-01-05T12:18:21.924Z,57.14
2023-01-05T12:19:21.993Z,54.24
2023-01-05T12:20:21.938Z,59.02
2023-01-05T12:21:21.900Z,56.02
2023-01-05T12:22:21.891Z,56.01
2023-01-05T12:23:21.889Z,56.89
2023-01-05T12:24:21.878Z,56.53
2023-01-05T12:25:21.905Z,52.75
2023-01-05T12:26:21.867Z,56.81
2023-01-05T12:27:22.432Z,56.95
2023-01-05T12:28:39.650Z,56.54
2023-01-05T12:34:23.868Z,56.39
2023-01-05T12:35:21.811Z,53.95
2023-01-05T12:36:21.786Z,58.60
2023-01-05T12:37:21.766Z,58.57
2023-01-05T12:38:22.764Z,57.24
2023-01-05T12:39:23.721Z,59.35
2023-01-05T12:40:22.768Z,57.98
2023-01-05T12:41:21.752Z,55.34
2023-01-05T12:42:21.732Z,59.62
2023-01-05T12:43:21.723Z,54.27
2023-01-05T12:44:21.726Z,60.26
2023-01-05T12:45:24.429Z,58.81
2023-01-05T12:46:22.748Z,58.22
2023-01-05T12:47:21.695Z,54.51
2023-01-05T12:48:21.835Z,56.95
2023-01-05T12:49:21.685Z,56.30
2023-01-05T12:50:21.953Z,55.02
2023-01-05T12:51:21.676Z,54.99
2023-01-05T12:52:21.649Z,53.91
2023-01-05T12:53:21.643Z,56.04
2023-01-05T12:54:21.634Z,56.28
2023-01-05T12:55:21.625Z,58.37
2023-01-05T12:56:21.652Z,58.44
2023-01-05T12:57:21.614Z,58.18
2023-01-05T12:58:21.608Z,53.43